Time;durP1;ratioP1;P1;durP2;ratioP2;P2;SDS_P1;SDS_P2;PMS_P1;PMS_P2;Temp;Humidity;BMP_temperature;BMP_pressure;BME280_temperature;BME280_humidity;BME280_pressure;Samples;Min_cycle;Max_cycle;Signal;HPM_P1;HPM_P2
2021/12/12 00:02:57;;;;;;;16.70;7.25;;;3.00;99.90;;;;;;7258880;32;20529;-59
2021/12/12 00:07:02;;;;;;;15.52;6.50;;;2.90;99.90;;;;;;7265932;32;20530;-61
2021/12/12 00:11:08;;;;;;;18.77;7.28;;;3.00;99.90;;;;;;7253123;32;20109;-62
2021/12/12 00:15:12;;;;;;;12.65;6.85;;;2.90;99.90;;;;;;7243907;32;20163;-62
2021/12/12 00:19:14;;;;;;;13.07;6.45;;;2.90;99.90;;;;;;7238629;32;20136;-60
2021/12/12 00:23:17;;;;;;;16.50;6.80;;;2.90;99.90;;;;;;7232367;32;20141;-59
2021/12/12 00:27:21;;;;;;;15.65;7.12;;;2.90;99.90;;;;;;7254771;32;20120;-61
2021/12/12 00:31:24;;;;;;;14.75;6.78;;;2.90;99.90;;;;;;7254876;32;20104;-60
2021/12/12 00:35:26;;;;;;;11.50;6.00;;;3.00;99.90;;;;;;7247982;32;20147;-60
2021/12/12 00:39:31;;;;;;;16.15;6.37;;;3.00;99.90;;;;;;7240540;32;20138;-61
2021/12/12 00:43:38;;;;;;;17.85;6.35;;;3.00;99.90;;;;;;7250084;32;20124;-59
2021/12/12 00:47:43;;;;;;;12.40;5.80;;;3.10;99.90;;;;;;7238740;32;20320;-59
2021/12/12 00:51:46;;;;;;;16.67;6.50;;;3.00;99.90;;;;;;7256278;32;20594;-59
2021/12/12 00:55:50;;;;;;;14.68;5.82;;;3.00;99.90;;;;;;7247096;32;20116;-59
2021/12/12 00:59:52;;;;;;;11.73;5.30;;;3.10;99.90;;;;;;7249180;32;20108;-59
2021/12/12 01:04:03;;;;;;;15.45;4.78;;;3.10;99.90;;;;;;7265920;32;20297;-62
2021/12/12 01:08:07;;;;;;;12.43;4.95;;;3.10;99.90;;;;;;7244242;32;20970;-60
2021/12/12 01:12:17;;;;;;;12.37;4.43;;;3.20;99.90;;;;;;7261158;32;20567;-59
2021/12/12 01:16:25;;;;;;;12.50;4.95;;;3.20;99.90;;;;;;7245604;32;20504;-61
2021/12/12 01:20:39;;;;;;;12.32;4.43;;;3.10;99.90;;;;;;7259354;32;20474;-61
2021/12/12 01:24:45;;;;;;;11.32;4.03;;;3.20;99.90;;;;;;7243450;32;20245;-61
2021/12/12 01:28:53;;;;;;;8.43;4.30;;;3.20;99.90;;;;;;7249157;32;20100;-62
2021/12/12 01:32:56;;;;;;;13.05;4.85;;;3.20;99.90;;;;;;7260724;32;20605;-61
2021/12/12 01:37:12;;;;;;;12.57;4.40;;;3.20;99.90;;;;;;7270032;32;20471;-60
2021/12/12 01:41:15;;;;;;;8.68;3.62;;;3.20;99.90;;;;;;7267271;32;20522;-61
2021/12/12 01:45:28;;;;;;;9.25;5.03;;;3.20;99.90;;;;;;7247666;32;20130;-61
2021/12/12 01:49:33;;;;;;;12.75;4.68;;;3.20;99.90;;;;;;7258026;32;20132;-61
2021/12/12 01:53:38;;;;;;;12.15;4.35;;;3.20;99.90;;;;;;7257607;32;20155;-61
2021/12/12 01:57:41;;;;;;;10.55;4.35;;;3.20;99.90;;;;;;7255933;32;20183;-61
2021/12/12 02:01:52;;;;;;;12.68;5.62;;;3.30;99.90;;;;;;7245100;32;20555;-61
2021/12/12 02:05:56;;;;;;;13.15;4.95;;;3.40;99.90;;;;;;7245730;32;20223;-61
2021/12/12 02:10:09;;;;;;;13.07;4.28;;;3.40;99.90;;;;;;7256721;32;20104;-61
2021/12/12 02:14:14;;;;;;;8.60;3.87;;;3.40;99.90;;;;;;7252530;32;20207;-61
2021/12/12 02:18:24;;;;;;;11.73;3.92;;;3.50;99.90;;;;;;7265781;32;20119;-61
2021/12/12 02:35:52;;;;;;;12.18;3.20;;;3.60;99.90;;;;;;7253587;32;20191;-60
2021/12/12 02:39:55;;;;;;;20.17;4.45;;;3.60;99.90;;;;;;7263519;32;20115;-61
2021/12/12 02:44:03;;;;;;;6.87;3.12;;;3.70;99.90;;;;;;7266296;32;20148;-61
2021/12/12 02:48:08;;;;;;;13.48;3.10;;;3.70;99.90;;;;;;7272487;32;20120;-61
2021/12/12 02:52:15;;;;;;;7.70;3.03;;;3.70;99.90;;;;;;7253545;32;20476;-62
2021/12/12 02:56:21;;;;;;;;;;;3.70;99.90;;;;;;7252451;32;20179;-61
2021/12/12 03:00:29;;;;;;;9.27;3.40;;;3.70;99.90;;;;;;7246596;32;20011;-60
2021/12/12 03:04:33;;;;;;;9.43;3.12;;;3.70;99.90;;;;;;7250565;32;20199;-61
2021/12/12 03:08:41;;;;;;;6.10;2.70;;;3.80;99.90;;;;;;7255881;32;20101;-61
2021/12/12 03:12:44;;;;;;;11.93;3.10;;;3.80;99.90;;;;;;7249938;32;20253;-61
2021/12/12 03:16:48;;;;;;;6.62;2.70;;;3.70;99.90;;;;;;7240859;32;20646;-61
2021/12/12 03:20:54;;;;;;;8.13;2.47;;;3.80;99.90;;;;;;7261993;32;20207;-61
2021/12/12 03:24:56;;;;;;;11.23;2.97;;;3.80;99.90;;;;;;7250058;32;20189;-61
2021/12/12 03:28:59;;;;;;;5.15;3.40;;;3.90;99.90;;;;;;7245709;32;20205;-61
2021/12/12 03:33:01;;;;;;;12.35;3.37;;;3.80;99.90;;;;;;7261146;32;20195;-61
2021/12/12 03:37:07;;;;;;;9.52;3.20;;;3.90;99.90;;;;;;7264206;32;20348;-61
2021/12/12 03:41:15;;;;;;;11.90;4.57;;;3.90;99.90;;;;;;7269668;32;20745;-60
2021/12/12 03:45:18;;;;;;;8.57;2.62;;;4.00;99.90;;;;;;7234356;32;20270;-62
2021/12/12 03:49:20;;;;;;;7.05;3.25;;;4.00;99.90;;;;;;7251811;32;20210;-61
2021/12/12 03:53:25;;;;;;;8.35;2.70;;;4.00;99.90;;;;;;7249219;32;20134;-61
2021/12/12 03:57:30;;;;;;;8.25;2.40;;;4.10;99.90;;;;;;7255562;32;20453;-61
2021/12/12 04:01:37;;;;;;;11.32;3.00;;;4.10;99.90;;;;;;7248127;32;20154;-61
2021/12/12 04:05:43;;;;;;;9.37;2.77;;;3.90;99.90;;;;;;7254588;32;20154;-61
2021/12/12 04:09:46;;;;;;;8.63;3.47;;;4.00;99.90;;;;;;7247332;32;20120;-61
2021/12/12 04:13:50;;;;;;;10.80;2.97;;;3.90;99.90;;;;;;7252318;32;20104;-61
2021/12/12 04:17:53;;;;;;;5.82;3.15;;;4.00;99.90;;;;;;7264053;32;20105;-60
2021/12/12 04:21:55;;;;;;;9.27;3.72;;;3.90;99.90;;;;;;7255501;32;20112;-61
2021/12/12 04:26:12;;;;;;;10.35;4.10;;;3.90;99.90;;;;;;7247726;32;20143;-61
2021/12/12 04:30:15;;;;;;;10.20;3.50;;;3.90;99.90;;;;;;7260619;32;20130;-60
2021/12/12 04:34:20;;;;;;;9.52;3.12;;;4.00;99.90;;;;;;7242960;32;20667;-60
2021/12/12 04:38:23;;;;;;;9.68;3.33;;;4.00;99.90;;;;;;7246257;32;20761;-61
2021/12/12 04:42:36;;;;;;;7.40;3.10;;;4.00;99.90;;;;;;7250554;32;20501;-60
2021/12/12 04:51:29;;;;;;;10.05;3.85;;;4.00;99.90;;;;;;7272089;32;20096;-60
2021/12/12 04:56:11;;;;;;;10.70;3.30;;;4.00;99.90;;;;;;7241632;32;20195;-59
2021/12/12 05:00:21;;;;;;;12.88;3.83;;;4.10;99.90;;;;;;7189237;32;20140;-60
2021/12/12 05:04:31;;;;;;;11.15;3.70;;;4.00;99.90;;;;;;7211283;32;20179;-61
2021/12/12 05:08:43;;;;;;;13.93;4.20;;;4.00;99.90;;;;;;7248942;32;20625;-60
2021/12/12 05:12:53;;;;;;;10.25;3.60;;;4.10;99.90;;;;;;7246876;32;20104;-60
2021/12/12 05:17:09;;;;;;;12.50;4.95;;;4.10;99.90;;;;;;7235375;32;20242;-60
2021/12/12 05:21:12;;;;;;;10.00;3.60;;;4.00;99.90;;;;;;7254327;32;20104;-61
2021/12/12 05:25:20;;;;;;;11.00;4.32;;;4.10;99.90;;;;;;7246714;32;20127;-59
2021/12/12 05:29:34;;;;;;;11.60;4.45;;;4.10;99.90;;;;;;7265994;32;20312;-61
2021/12/12 05:33:36;;;;;;;13.48;4.57;;;4.00;99.90;;;;;;7243221;32;20389;-61
2021/12/12 05:37:39;;;;;;;14.73;5.10;;;4.00;99.90;;;;;;7251498;32;20211;-60
2021/12/12 05:41:41;;;;;;;13.30;4.62;;;4.00;99.90;;;;;;7269620;32;20543;-61
2021/12/12 05:45:45;;;;;;;11.32;5.18;;;3.90;99.90;;;;;;7254915;32;20100;-61
2021/12/12 05:49:47;;;;;;;10.63;4.28;;;4.00;99.90;;;;;;7260861;32;20128;-60
2021/12/12 05:53:51;;;;;;;15.35;5.28;;;4.20;99.90;;;;;;7275288;32;20101;-61
2021/12/12 05:57:55;;;;;;;12.57;5.07;;;4.00;99.90;;;;;;7257270;32;20117;-61
2021/12/12 06:02:00;;;;;;;13.23;4.70;;;4.10;99.90;;;;;;7258988;32;20196;-59
2021/12/12 06:06:06;;;;;;;11.82;5.32;;;4.10;99.90;;;;;;7254640;32;20112;-62
2021/12/12 06:10:11;;;;;;;18.02;6.00;;;4.10;99.90;;;;;;7245508;32;20116;-60
2021/12/12 06:14:14;;;;;;;10.43;4.32;;;4.10;99.90;;;;;;7260125;32;20154;-61
2021/12/12 06:18:25;;;;;;;12.82;5.18;;;4.20;99.90;;;;;;7254126;32;20128;-60
2021/12/12 06:22:27;;;;;;;13.65;5.40;;;4.10;99.90;;;;;;7274574;32;20438;-60
2021/12/12 06:26:29;;;;;;;9.70;4.78;;;4.10;99.90;;;;;;7271259;32;20108;-60
2021/12/12 06:30:31;;;;;;;9.65;4.62;;;4.20;99.90;;;;;;7272854;32;20985;-61
2021/12/12 06:34:34;;;;;;;11.23;4.80;;;4.10;99.90;;;;;;7268767;32;20477;-60
2021/12/12 06:38:38;;;;;;;13.68;4.80;;;4.30;99.90;;;;;;7258411;32;20123;-61
2021/12/12 06:42:40;;;;;;;10.63;5.15;;;4.30;99.90;;;;;;7262630;32;20116;-61
2021/12/12 06:46:43;;;;;;;9.98;4.70;;;4.20;99.90;;;;;;7271734;32;20202;-62
2021/12/12 06:50:48;;;;;;;8.32;4.60;;;4.30;99.90;;;;;;7264420;32;20105;-61
2021/12/12 06:54:52;;;;;;;7.55;4.45;;;4.30;99.90;;;;;;7269133;32;20764;-61
2021/12/12 06:58:57;;;;;;;8.52;5.05;;;4.30;99.90;;;;;;7264521;32;20225;-60
2021/12/12 07:03:02;;;;;;;12.45;5.07;;;4.30;99.90;;;;;;7280128;32;20467;-60
2021/12/12 07:07:07;;;;;;;9.18;4.72;;;4.40;99.90;;;;;;7275227;32;20339;-61
2021/12/12 07:11:09;;;;;;;8.68;4.68;;;4.40;99.90;;;;;;7273977;32;20128;-62
2021/12/12 07:15:15;;;;;;;8.68;4.68;;;4.40;99.90;;;;;;7268350;32;20125;-61
2021/12/12 07:19:17;;;;;;;11.50;4.72;;;4.50;99.90;;;;;;7259878;32;20108;-61
2021/12/12 07:23:20;;;;;;;6.90;4.65;;;4.50;99.90;;;;;;7266820;32;20134;-61
2021/12/12 07:27:21;;;;;;;10.70;5.05;;;4.50;99.90;;;;;;7280658;32;20214;-60
2021/12/12 07:31:29;;;;;;;8.63;4.62;;;4.50;99.90;;;;;;7261253;32;20302;-60
2021/12/12 07:35:38;;;;;;;6.75;4.43;;;4.50;99.90;;;;;;7273412;32;20183;-60
2021/12/12 07:39:42;;;;;;;10.32;4.68;;;4.60;99.90;;;;;;7278738;32;20100;-60
2021/12/12 07:43:44;;;;;;;11.98;5.35;;;4.60;99.90;;;;;;7258452;32;20126;-60
2021/12/12 07:47:47;;;;;;;8.68;4.85;;;4.60;99.90;;;;;;7243831;32;20105;-59
2021/12/12 07:51:49;;;;;;;8.15;4.50;;;4.60;99.90;;;;;;7267462;32;20560;-61
2021/12/12 07:55:54;;;;;;;10.65;5.72;;;4.60;99.90;;;;;;7269090;32;20101;-60
2021/12/12 07:59:57;;;;;;;7.80;5.53;;;4.70;99.90;;;;;;7267778;32;20108;-60
2021/12/12 08:04:00;;;;;;;8.02;4.87;;;4.70;99.90;;;;;;7267178;32;20131;-59
2021/12/12 08:08:06;;;;;;;7.80;5.10;;;4.70;99.90;;;;;;7260868;32;20232;-60
2021/12/12 08:12:18;;;;;;;10.20;5.30;;;4.70;99.90;;;;;;7264540;32;20112;-60
2021/12/12 08:16:20;;;;;;;8.50;5.40;;;4.80;99.90;;;;;;7268213;32;20348;-61
2021/12/12 08:20:25;;;;;;;9.50;5.47;;;4.80;99.90;;;;;;7251528;32;20286;-58
2021/12/12 08:24:27;;;;;;;9.20;5.62;;;4.70;99.90;;;;;;7246825;32;20109;-60
2021/12/12 08:28:30;;;;;;;7.68;4.80;;;4.80;99.90;;;;;;7244490;32;20127;-59
2021/12/12 08:32:32;;;;;;;10.77;5.30;;;4.90;99.90;;;;;;7252756;32;20297;-61
2021/12/12 08:36:46;;;;;;;9.98;5.32;;;4.80;99.90;;;;;;7247051;32;20199;-60
2021/12/12 08:40:52;;;;;;;10.88;5.70;;;4.90;99.90;;;;;;7276691;32;20527;-61
2021/12/12 08:44:55;;;;;;;7.68;5.50;;;4.90;99.90;;;;;;7279216;32;20154;-60
2021/12/12 08:48:59;;;;;;;8.60;5.93;;;4.90;99.90;;;;;;7247441;32;20120;-61
2021/12/12 08:53:04;;;;;;;8.95;5.57;;;4.90;99.90;;;;;;7262236;32;20186;-59
2021/12/12 08:57:20;;;;;;;11.60;5.43;;;5.00;99.90;;;;;;7262980;32;20564;-59
2021/12/12 09:01:23;;;;;;;8.32;6.03;;;5.10;99.90;;;;;;7239687;32;20125;-59
2021/12/12 09:05:33;;;;;;;7.32;5.15;;;5.10;99.90;;;;;;7259846;32;20116;-60
2021/12/12 09:10:11;;;;;;;8.00;5.80;;;5.20;99.90;;;;;;7270744;32;20132;-60
2021/12/12 09:14:37;;;;;;;10.75;6.53;;;5.20;99.90;;;;;;7242845;32;20290;-61
2021/12/12 09:18:44;;;;;;;11.73;7.00;;;5.10;99.90;;;;;;7249583;32;20218;-60
2021/12/12 09:23:00;;;;;;;8.43;6.03;;;5.10;99.90;;;;;;7263940;32;20124;-59
2021/12/12 09:27:08;;;;;;;10.32;6.62;;;5.20;99.90;;;;;;7250126;32;20152;-62
2021/12/12 09:31:18;;;;;;;11.77;6.72;;;5.30;99.90;;;;;;7235685;32;20147;-60
2021/12/12 09:35:29;;;;;;;9.38;6.28;;;5.30;99.90;;;;;;7247571;32;20210;-61
2021/12/12 09:39:41;;;;;;;12.52;5.90;;;5.30;99.90;;;;;;7254229;32;20129;-60
2021/12/12 09:44:15;;;;;;;9.55;6.87;;;5.40;99.90;;;;;;7250696;32;20573;-58
2021/12/12 09:53:31;;;;;;;11.18;6.40;;;5.40;99.90;;;;;;7257655;32;20191;-59
2021/12/12 09:57:57;;;;;;;10.13;6.18;;;5.40;99.90;;;;;;7255190;32;20229;-61
2021/12/12 10:02:05;;;;;;;10.80;6.32;;;5.40;99.90;;;;;;7270275;32;20476;-59
2021/12/12 10:06:15;;;;;;;11.38;5.30;;;5.50;99.90;;;;;;7254351;32;20127;-60
2021/12/12 10:10:58;;;;;;;7.90;6.18;;;5.50;99.90;;;;;;7263402;32;20219;-60
2021/12/12 10:15:11;;;;;;;7.75;4.90;;;5.60;99.90;;;;;;7296371;32;20130;-60
2021/12/12 10:19:28;;;;;;;9.93;5.78;;;5.60;99.90;;;;;;7229314;32;20228;-60
2021/12/12 10:23:48;;;;;;;11.45;5.40;;;5.60;99.90;;;;;;7200648;32;20109;-60
2021/12/12 10:27:51;;;;;;;8.27;4.53;;;5.60;99.90;;;;;;7198468;32;20548;-59
2021/12/12 10:31:54;;;;;;;8.68;4.75;;;5.70;99.90;;;;;;7196402;32;20221;-61
2021/12/12 10:36:52;;;;;;;6.28;4.22;;;5.80;99.90;;;;;;7197899;32;20552;-60
2021/12/12 10:41:05;;;;;;;7.97;4.25;;;5.90;99.90;;;;;;7119378;32;20172;-61
2021/12/12 10:45:13;;;;;;;8.60;4.05;;;5.90;99.90;;;;;;7192295;32;20599;-61
2021/12/12 10:49:36;;;;;;;8.93;4.05;;;5.90;99.90;;;;;;7187249;32;20228;-61
2021/12/12 10:53:42;;;;;;;8.57;4.20;;;5.80;99.90;;;;;;7189680;32;20105;-61
2021/12/12 10:57:59;;;;;;;7.78;3.90;;;6.00;99.90;;;;;;7195065;32;20239;-61
2021/12/12 11:02:07;;;;;;;5.32;3.37;;;6.00;99.90;;;;;;7188885;32;20284;-63
2021/12/12 11:06:16;;;;;;;7.57;3.62;;;6.10;99.90;;;;;;7189558;32;20101;-61
2021/12/12 11:10:39;;;;;;;6.32;3.53;;;6.10;99.90;;;;;;7183433;32;20459;-61
2021/12/12 11:15:02;;;;;;;7.60;3.90;;;6.10;99.90;;;;;;7186720;32;20133;-60
2021/12/12 11:19:09;;;;;;;6.43;3.60;;;6.00;99.90;;;;;;7199124;32;20129;-59
2021/12/12 11:23:25;;;;;;;5.93;3.20;;;6.10;99.90;;;;;;7202021;32;20151;-61
2021/12/12 11:27:44;;;;;;;6.13;3.13;;;6.10;99.90;;;;;;7188291;32;20173;-62
2021/12/12 11:32:04;;;;;;;5.30;3.10;;;6.10;99.90;;;;;;7181268;32;20124;-61
2021/12/12 11:36:24;;;;;;;6.60;3.92;;;6.10;99.90;;;;;;7188769;32;20554;-61
2021/12/12 11:40:49;;;;;;;5.57;3.90;;;6.20;99.90;;;;;;7186485;32;20195;-61
2021/12/12 11:45:10;;;;;;;7.47;3.53;;;6.10;99.90;;;;;;7189516;32;20128;-62
2021/12/12 11:49:29;;;;;;;6.20;3.20;;;6.10;99.90;;;;;;7186278;32;20215;-61
2021/12/12 11:53:45;;;;;;;4.87;3.50;;;6.20;99.90;;;;;;7186845;32;20113;-60
2021/12/12 11:57:53;;;;;;;4.15;3.20;;;6.20;99.90;;;;;;7191328;32;20097;-61
2021/12/12 12:02:33;;;;;;;4.07;3.50;;;6.20;99.90;;;;;;7198215;32;20482;-58
2021/12/12 12:06:39;;;;;;;4.50;3.15;;;6.20;99.90;;;;;;7194696;32;20688;-60
2021/12/12 12:15:32;;;;;;;6.32;3.87;;;6.30;99.90;;;;;;5811863;30;20195;-78
2021/12/12 12:19:41;;;;;;;3.90;3.35;;;6.30;99.90;;;;;;7281571;32;20248;-79
2021/12/12 12:24:19;;;;;;;5.18;3.85;;;6.30;99.90;;;;;;7278754;32;20611;-79
2021/12/12 12:28:23;;;;;;;;;;;6.30;99.90;;;;;;7246210;32;20272;-78
2021/12/12 12:33:02;;;;;;;5.00;3.53;;;6.30;99.90;;;;;;7286102;32;20371;-77
2021/12/12 12:37:38;;;;;;;4.25;3.85;;;6.40;99.90;;;;;;7268174;32;20128;-79
2021/12/12 12:42:02;;;;;;;4.90;4.25;;;6.40;99.90;;;;;;7266532;32;20127;-77
2021/12/12 12:46:43;;;;;;;7.18;4.43;;;6.40;99.90;;;;;;7278730;32;20123;-78
2021/12/12 12:51:31;;;;;;;6.40;4.40;;;6.50;99.90;;;;;;7284879;32;20583;-79
2021/12/12 12:56:09;;;;;;;6.27;4.20;;;6.40;99.90;;;;;;7279407;32;20211;-79
2021/12/12 13:00:16;;;;;;;4.90;3.78;;;6.50;99.90;;;;;;7278401;32;20330;-78
2021/12/12 13:04:37;;;;;;;;;;;6.60;99.90;;;;;;7284807;32;20109;-78
2021/12/12 13:09:14;;;;;;;5.35;4.28;;;6.60;99.90;;;;;;7266256;32;20015;-79
2021/12/12 13:13:30;;;;;;;4.40;3.95;;;6.60;99.90;;;;;;7282287;32;20166;-76
2021/12/12 13:17:46;;;;;;;5.53;3.67;;;6.70;99.90;;;;;;7274357;32;20139;-76
2021/12/12 13:22:16;;;;;;;4.60;3.85;;;6.70;99.90;;;;;;7293393;32;20105;-76
2021/12/12 13:26:43;;;;;;;5.12;4.03;;;6.70;99.90;;;;;;7282925;32;20108;-77
2021/12/12 13:31:01;;;;;;;4.60;4.17;;;6.80;99.90;;;;;;7254519;32;20117;-77
2021/12/12 13:35:11;;;;;;;4.32;3.90;;;6.80;99.90;;;;;;7270314;32;20989;-77
2021/12/12 13:39:16;;;;;;;6.15;4.12;;;6.80;99.90;;;;;;7274764;32;20097;-77
2021/12/12 13:43:24;;;;;;;4.55;4.03;;;6.80;99.90;;;;;;7268454;32;20328;-77
2021/12/12 13:47:42;;;;;;;4.93;4.18;;;6.90;99.90;;;;;;7273253;32;20199;-78
2021/12/12 13:52:15;;;;;;;7.18;5.78;;;6.80;99.90;;;;;;7273403;32;20512;-77
2021/12/12 13:56:28;;;;;;;6.62;5.53;;;6.80;99.90;;;;;;7262806;32;20169;-77
2021/12/12 14:00:38;;;;;;;6.60;5.93;;;6.80;99.90;;;;;;7273815;32;20243;-79
2021/12/12 14:04:53;;;;;;;5.97;5.22;;;7.00;99.90;;;;;;7272137;32;20180;-78
2021/12/12 14:09:04;;;;;;;6.18;5.57;;;7.10;99.90;;;;;;7276103;32;20465;-78
2021/12/12 14:13:09;;;;;;;6.18;5.30;;;7.10;99.90;;;;;;7272130;32;20131;-77
2021/12/12 14:17:53;;;;;;;7.68;5.50;;;7.10;99.90;;;;;;7283343;32;20173;-81
2021/12/12 14:21:55;;;;;;;7.35;5.53;;;7.20;99.90;;;;;;7244080;32;20529;-77
2021/12/12 14:26:05;;;;;;;7.55;5.60;;;7.20;99.90;;;;;;7280711;32;20124;-77
2021/12/12 14:30:10;;;;;;;7.22;5.80;;;7.20;99.90;;;;;;7275784;32;20756;-77
2021/12/12 14:34:40;;;;;;;6.43;5.15;;;7.30;99.90;;;;;;7281762;32;20290;-77
2021/12/12 14:38:45;;;;;;;5.87;5.03;;;7.30;99.90;;;;;;7274402;32;20128;-77
2021/12/12 14:43:01;;;;;;;5.53;4.93;;;7.30;99.90;;;;;;7286692;32;20821;-78
2021/12/12 14:47:12;;;;;;;5.47;4.68;;;7.30;99.90;;;;;;7279189;32;20117;-78
2021/12/12 14:51:20;;;;;;;5.35;4.70;;;7.40;99.90;;;;;;7286535;32;20126;-77
2021/12/12 14:55:27;;;;;;;4.37;3.95;;;7.40;99.90;;;;;;7271540;32;20132;-76
2021/12/12 14:59:42;;;;;;;5.10;4.57;;;7.50;99.90;;;;;;7283443;32;20129;-76
2021/12/12 15:03:49;;;;;;;5.80;5.10;;;7.50;99.90;;;;;;7270517;32;20705;-76
2021/12/12 15:07:53;;;;;;;5.53;4.63;;;7.50;99.90;;;;;;7277538;32;20150;-77
2021/12/12 15:12:10;;;;;;;4.68;4.18;;;7.50;99.90;;;;;;7278726;32;20222;-76
2021/12/12 15:16:16;;;;;;;5.00;4.33;;;7.60;99.90;;;;;;7284559;32;20229;-76
2021/12/12 15:20:28;;;;;;;6.80;4.40;;;7.60;99.90;;;;;;7277759;32;20711;-78
2021/12/12 15:24:33;;;;;;;6.82;5.22;;;7.60;99.90;;;;;;7279699;32;20174;-78
2021/12/12 15:28:39;;;;;;;8.82;5.55;;;7.60;99.90;;;;;;7272980;32;20112;-78
2021/12/12 15:32:48;;;;;;;6.47;5.20;;;7.60;99.90;;;;;;7268355;32;20143;-77
2021/12/12 15:36:57;;;;;;;6.18;5.18;;;7.60;99.90;;;;;;7284986;32;20282;-78
2021/12/12 15:41:03;;;;;;;6.43;4.80;;;7.60;99.90;;;;;;7260713;32;20182;-78
2021/12/12 15:45:22;;;;;;;6.05;4.90;;;7.70;99.90;;;;;;7269573;32;20875;-77
2021/12/12 15:49:33;;;;;;;8.93;4.95;;;7.70;99.90;;;;;;7277968;32;20108;-77
2021/12/12 15:53:46;;;;;;;5.90;4.85;;;7.70;99.90;;;;;;7280695;32;20197;-76
2021/12/12 15:57:53;;;;;;;6.07;5.18;;;7.60;99.90;;;;;;7272881;32;20150;-78
2021/12/12 16:02:11;;;;;;;17.87;6.07;;;7.80;99.90;;;;;;7266452;32;20152;-76
2021/12/12 16:06:40;;;;;;;6.05;5.00;;;7.80;99.90;;;;;;7267038;32;20120;-75
2021/12/12 16:10:45;;;;;;;6.07;5.25;;;7.80;99.90;;;;;;7271224;32;21299;-76
2021/12/12 16:14:55;;;;;;;8.75;5.30;;;7.80;99.90;;;;;;7274869;32;20218;-76
2021/12/12 16:19:09;;;;;;;8.32;5.25;;;7.90;99.90;;;;;;7273615;32;20274;-75
2021/12/12 16:23:19;;;;;;;5.47;4.90;;;7.90;99.90;;;;;;7278846;32;20660;-76
2021/12/12 16:27:26;;;;;;;6.72;5.97;;;8.00;99.90;;;;;;7272248;32;21021;-75
2021/12/12 16:31:30;;;;;;;7.97;6.20;;;8.10;99.90;;;;;;7276472;32;20766;-75
2021/12/12 16:35:35;;;;;;;7.35;6.43;;;8.00;99.90;;;;;;7269747;32;20195;-75
2021/12/12 16:39:43;;;;;;;8.52;7.03;;;8.10;99.90;;;;;;7291923;32;20131;-75
2021/12/12 16:43:58;;;;;;;8.50;7.15;;;8.10;99.90;;;;;;7261212;32;20694;-75
2021/12/12 16:48:05;;;;;;;8.65;6.70;;;8.20;99.90;;;;;;7263475;32;20199;-75
2021/12/12 16:52:09;;;;;;;;;;;8.30;99.90;;;;;;7277767;32;20214;-75
2021/12/12 16:56:18;;;;;;;7.53;6.62;;;8.20;99.90;;;;;;7282297;32;20019;-75
2021/12/12 17:00:26;;;;;;;9.20;7.57;;;8.30;99.90;;;;;;7270428;32;20246;-75
2021/12/12 17:04:29;;;;;;;11.00;8.52;;;8.30;99.90;;;;;;7277273;32;20154;-76
2021/12/12 17:12:57;;;;;;;10.43;8.13;;;8.30;99.90;;;;;;7277537;32;20141;-78
2021/12/12 17:17:01;;;;;;;11.07;8.52;;;8.30;99.90;;;;;;7279963;32;20191;-78
2021/12/12 17:21:17;;;;;;;9.75;8.73;;;8.40;99.90;;;;;;7270216;32;20168;-78
2021/12/12 17:25:20;;;;;;;10.68;9.57;;;8.30;99.90;;;;;;7258651;32;20124;-78
2021/12/12 17:29:29;;;;;;;12.40;10.20;;;8.30;99.90;;;;;;7267303;32;20793;-78
2021/12/12 17:33:38;;;;;;;16.98;12.02;;;8.40;99.90;;;;;;7280527;32;20148;-78
2021/12/12 17:37:45;;;;;;;12.85;11.55;;;8.30;99.90;;;;;;7259463;32;20179;-78
2021/12/12 17:42:02;;;;;;;14.23;12.23;;;8.30;99.90;;;;;;7281732;32;20719;-79
2021/12/12 17:46:22;;;;;;;14.87;12.33;;;8.30;99.90;;;;;;7281163;32;20157;-78
2021/12/12 17:51:02;;;;;;;16.62;12.45;;;8.40;99.90;;;;;;7270474;32;20220;-78
2021/12/12 17:55:15;;;;;;;14.45;11.65;;;8.40;99.90;;;;;;7281295;32;20103;-79
2021/12/12 17:59:46;;;;;;;15.95;11.95;;;8.50;99.90;;;;;;7282408;32;20101;-79
2021/12/12 18:03:53;;;;;;;14.70;12.10;;;8.40;99.90;;;;;;7281895;32;20173;-79
2021/12/12 18:08:22;;;;;;;15.37;12.50;;;8.40;99.90;;;;;;7278769;32;20127;-79
2021/12/12 18:12:24;;;;;;;16.52;14.15;;;8.50;99.90;;;;;;7249160;32;20195;-79
2021/12/12 18:16:36;;;;;;;17.12;13.57;;;8.50;99.90;;;;;;7279194;32;20481;-79
2021/12/12 18:20:47;;;;;;;17.48;14.18;;;8.60;99.90;;;;;;7290202;32;20623;-79
2021/12/12 18:24:50;;;;;;;20.83;16.10;;;8.60;99.90;;;;;;7286466;32;20127;-79
2021/12/12 18:28:56;;;;;;;21.08;16.55;;;8.50;99.90;;;;;;7288022;32;20108;-79
2021/12/12 18:33:16;;;;;;;20.33;15.98;;;8.60;99.90;;;;;;7286889;32;20480;-79
2021/12/12 18:37:28;;;;;;;18.58;15.55;;;8.70;99.90;;;;;;7279534;32;20167;-78
2021/12/12 18:41:37;;;;;;;22.92;18.52;;;8.60;99.90;;;;;;7281336;32;20420;-78
2021/12/12 18:45:41;;;;;;;21.80;15.82;;;8.70;99.90;;;;;;7289503;32;20466;-79
2021/12/12 18:49:46;;;;;;;18.73;16.10;;;8.70;99.90;;;;;;7303114;32;20510;-78
2021/12/12 18:54:02;;;;;;;21.45;16.50;;;8.60;99.90;;;;;;7287028;32;20128;-78
2021/12/12 18:58:15;;;;;;;19.37;15.48;;;8.70;99.90;;;;;;7281248;32;20162;-79
2021/12/12 19:02:26;;;;;;;23.35;15.77;;;8.90;99.90;;;;;;7289831;32;20131;-79
2021/12/12 19:06:37;;;;;;;21.48;17.12;;;8.80;99.90;;;;;;7283293;32;20134;-78
2021/12/12 19:10:46;;;;;;;26.83;17.05;;;8.90;99.90;;;;;;7286836;32;20175;-78
2021/12/12 19:14:47;;;;;;;21.85;16.77;;;8.80;99.90;;;;;;7274741;32;20539;-79
2021/12/12 19:18:56;;;;;;;24.95;17.95;;;8.70;99.90;;;;;;7293703;32;20132;-79
2021/12/12 19:23:00;;;;;;;23.83;16.62;;;8.80;99.90;;;;;;7285489;32;20765;-79
2021/12/12 19:27:16;;;;;;;23.85;15.40;;;8.90;99.90;;;;;;7282210;32;20266;-79
2021/12/12 19:31:21;;;;;;;23.73;17.60;;;8.90;99.90;;;;;;7289187;32;20155;-80
2021/12/12 19:35:33;;;;;;;25.88;17.83;;;8.90;99.90;;;;;;7292626;32;20138;-80
2021/12/12 19:39:47;;;;;;;27.70;18.10;;;8.90;99.90;;;;;;7273050;32;20460;-80
2021/12/12 19:43:59;;;;;;;25.27;18.12;;;8.90;99.90;;;;;;7290195;32;20192;-80
2021/12/12 19:48:05;;;;;;;26.98;17.98;;;8.90;99.90;;;;;;7285892;32;20243;-80
2021/12/12 19:52:07;;;;;;;28.17;20.12;;;8.90;99.90;;;;;;7281999;32;20124;-80
2021/12/12 19:56:10;;;;;;;33.05;19.62;;;8.90;99.90;;;;;;7282157;32;20120;-80
2021/12/12 20:00:29;;;;;;;32.70;19.92;;;9.00;99.90;;;;;;7288245;32;20272;-80
2021/12/12 20:04:38;;;;;;;32.53;19.42;;;9.00;99.90;;;;;;7277238;32;20127;-81
2021/12/12 20:08:50;;;;;;;32.63;20.90;;;8.90;99.90;;;;;;7277400;32;20556;-80
2021/12/12 20:12:59;;;;;;;28.87;19.85;;;9.00;99.90;;;;;;7267473;32;20256;-80
2021/12/12 20:17:09;;;;;;;28.00;20.33;;;9.10;99.90;;;;;;7290772;32;20237;-80
2021/12/12 20:21:11;;;;;;;32.72;19.52;;;9.00;99.90;;;;;;7287948;32;20112;-79
2021/12/12 20:25:23;;;;;;;30.15;21.48;;;9.10;99.90;;;;;;7263983;32;20145;-82
2021/12/12 20:29:31;;;;;;;30.67;20.73;;;9.10;99.90;;;;;;7270653;32;20191;-81
2021/12/12 20:33:35;;;;;;;31.55;21.10;;;9.10;99.90;;;;;;7293991;32;20111;-81
2021/12/12 20:37:37;;;;;;;31.05;20.98;;;9.00;99.90;;;;;;7286928;32;20139;-80
2021/12/12 20:41:49;;;;;;;36.97;22.87;;;9.10;99.90;;;;;;7289217;32;20142;-82
2021/12/12 20:45:57;;;;;;;29.70;21.05;;;9.00;99.90;;;;;;7297273;32;20119;-81
2021/12/12 20:50:14;;;;;;;33.03;21.60;;;9.10;99.90;;;;;;7276533;32;20183;-81
2021/12/12 20:54:35;;;;;;;36.58;22.85;;;9.00;99.90;;;;;;7288293;32;20117;-80
2021/12/12 20:59:01;;;;;;;33.30;21.02;;;9.10;99.90;;;;;;7282441;32;20131;-80
2021/12/12 21:03:04;;;;;;;33.42;21.20;;;9.10;99.90;;;;;;7289030;32;20173;-80
2021/12/12 21:07:11;;;;;;;31.55;20.70;;;9.10;99.90;;;;;;7291431;32;20136;-80
2021/12/12 21:11:13;;;;;;;29.97;19.67;;;9.10;99.90;;;;;;7289970;32;20169;-83
2021/12/12 21:15:23;;;;;;;35.30;21.02;;;9.10;99.90;;;;;;7286192;32;20123;-81
2021/12/12 21:19:36;;;;;;;39.15;24.00;;;9.20;99.90;;;;;;7281668;32;20128;-80
2021/12/12 21:23:49;;;;;;;34.92;21.62;;;9.10;99.90;;;;;;7275423;32;20152;-82
2021/12/12 21:28:07;;;;;;;34.05;21.20;;;9.20;99.90;;;;;;7283672;32;20504;-78
2021/12/12 21:32:14;;;;;;;33.38;21.70;;;9.10;99.90;;;;;;7260706;32;20494;-79
2021/12/12 21:36:53;;;;;;;32.50;21.35;;;9.00;99.90;;;;;;7261226;32;20534;-79
2021/12/12 21:41:03;;;;;;;33.10;21.52;;;9.10;99.90;;;;;;7276065;32;20588;-80
2021/12/12 21:45:29;;;;;;;34.15;22.42;;;9.10;99.90;;;;;;7284335;32;20204;-80
2021/12/12 21:49:47;;;;;;;36.80;22.00;;;9.10;99.90;;;;;;7277814;32;20135;-80
2021/12/12 21:53:49;;;;;;;34.95;21.77;;;9.10;99.90;;;;;;7285418;32;20501;-79
2021/12/12 21:57:53;;;;;;;36.20;23.02;;;9.10;99.90;;;;;;7286851;32;20195;-80
2021/12/12 22:06:58;;;;;;;31.62;21.67;;;9.00;99.90;;;;;;7281999;32;20567;-80
2021/12/12 22:11:02;;;;;;;29.30;19.05;;;9.10;99.90;;;;;;7289493;32;20187;-80
2021/12/12 22:15:11;;;;;;;33.30;19.48;;;9.20;99.90;;;;;;7274454;32;20841;-80
2021/12/12 22:19:37;;;;;;;29.83;20.37;;;9.10;99.90;;;;;;7285783;32;20133;-80
2021/12/12 22:23:53;;;;;;;32.40;20.12;;;9.10;99.90;;;;;;7278915;32;20112;-79
2021/12/12 22:28:09;;;;;;;25.02;17.12;;;9.20;99.90;;;;;;7294644;32;20163;-79